sensor_id;sensor_type;location;lat;lon;timestamp;P1;durP1;ratioP1;P2;durP2;ratioP2
14847;SDS011;7516;43.570;1.448;2023-04-25T00:01:28;4.20;;;2.03;;
14847;SDS011;7516;43.570;1.448;2023-04-25T00:03:57;2.73;;;1.73;;
14847;SDS011;7516;43.570;1.448;2023-04-25T00:06:28;2.47;;;1.63;;
14847;SDS011;7516;43.570;1.448;2023-04-25T00:08:57;6.90;;;2.00;;
14847;SDS011;7516;43.570;1.448;2023-04-25T00:11:24;2.63;;;1.63;;
14847;SDS011;7516;43.570;1.448;2023-04-25T00:13:52;3.43;;;1.50;;
14847;SDS011;7516;43.570;1.448;2023-04-25T00:16:19;2.97;;;1.60;;
14847;SDS011;7516;43.570;1.448;2023-04-25T00:18:48;3.63;;;1.60;;
14847;SDS011;7516;43.570;1.448;2023-04-25T00:21:18;2.60;;;1.50;;
14847;SDS011;7516;43.570;1.448;2023-04-25T00:23:50;2.43;;;1.60;;
14847;SDS011;7516;43.570;1.448;2023-04-25T00:26:18;2.27;;;1.43;;
14847;SDS011;7516;43.570;1.448;2023-04-25T00:28:47;3.93;;;1.90;;
14847;SDS011;7516;43.570;1.448;2023-04-25T00:31:14;3.67;;;1.80;;
14847;SDS011;7516;43.570;1.448;2023-04-25T00:33:42;2.63;;;1.60;;
14847;SDS011;7516;43.570;1.448;2023-04-25T00:36:09;4.13;;;2.10;;
14847;SDS011;7516;43.570;1.448;2023-04-25T00:38:37;2.93;;;1.70;;
14847;SDS011;7516;43.570;1.448;2023-04-25T00:41:07;4.53;;;1.90;;
14847;SDS011;7516;43.570;1.448;2023-04-25T00:43:34;6.30;;;2.03;;
14847;SDS011;7516;43.570;1.448;2023-04-25T00:46:03;3.93;;;2.10;;
14847;SDS011;7516;43.570;1.448;2023-04-25T00:48:31;3.47;;;1.97;;
14847;SDS011;7516;43.570;1.448;2023-04-25T00:50:58;4.80;;;2.10;;
14847;SDS011;7516;43.570;1.448;2023-04-25T00:53:26;5.13;;;2.10;;
14847;SDS011;7516;43.570;1.448;2023-04-25T00:55:57;3.60;;;2.07;;
14847;SDS011;7516;43.570;1.448;2023-04-25T00:58:26;4.20;;;1.90;;
14847;SDS011;7516;43.570;1.448;2023-04-25T01:00:56;5.63;;;2.00;;
14847;SDS011;7516;43.570;1.448;2023-04-25T01:03:25;3.43;;;1.90;;
14847;SDS011;7516;43.570;1.448;2023-04-25T01:05:53;3.77;;;1.57;;
14847;SDS011;7516;43.570;1.448;2023-04-25T01:08:21;3.37;;;2.37;;
14847;SDS011;7516;43.570;1.448;2023-04-25T01:10:50;2.30;;;1.50;;
14847;SDS011;7516;43.570;1.448;2023-04-25T01:13:18;1.40;;;1.10;;
14847;SDS011;7516;43.570;1.448;2023-04-25T01:15:47;1.87;;;1.20;;
14847;SDS011;7516;43.570;1.448;2023-04-25T01:18:15;4.27;;;1.30;;
14847;SDS011;7516;43.570;1.448;2023-04-25T01:20:42;2.53;;;1.30;;
14847;SDS011;7516;43.570;1.448;2023-04-25T01:23:12;1.93;;;1.10;;
14847;SDS011;7516;43.570;1.448;2023-04-25T01:25:40;1.50;;;0.90;;
14847;SDS011;7516;43.570;1.448;2023-04-25T01:28:08;1.63;;;0.80;;
14847;SDS011;7516;43.570;1.448;2023-04-25T01:30:36;1.30;;;0.67;;
14847;SDS011;7516;43.570;1.448;2023-04-25T01:33:04;1.37;;;0.70;;
14847;SDS011;7516;43.570;1.448;2023-04-25T01:35:33;2.50;;;0.60;;
14847;SDS011;7516;43.570;1.448;2023-04-25T01:38:01;0.83;;;0.60;;
14847;SDS011;7516;43.570;1.448;2023-04-25T01:40:30;0.80;;;0.50;;
14847;SDS011;7516;43.570;1.448;2023-04-25T01:42:59;0.80;;;0.50;;
14847;SDS011;7516;43.570;1.448;2023-04-25T01:45:29;0.83;;;0.50;;
14847;SDS011;7516;43.570;1.448;2023-04-25T01:47:58;0.67;;;0.47;;
14847;SDS011;7516;43.570;1.448;2023-04-25T01:50:25;0.77;;;0.50;;
14847;SDS011;7516;43.570;1.448;2023-04-25T01:52:54;0.70;;;0.30;;
14847;SDS011;7516;43.570;1.448;2023-04-25T01:55:22;3.27;;;0.40;;
14847;SDS011;7516;43.570;1.448;2023-04-25T01:57:51;2.30;;;0.60;;
14847;SDS011;7516;43.570;1.448;2023-04-25T02:00:19;0.60;;;0.40;;
14847;SDS011;7516;43.570;1.448;2023-04-25T02:02:46;0.47;;;0.30;;
14847;SDS011;7516;43.570;1.448;2023-04-25T02:05:15;0.47;;;0.33;;
14847;SDS011;7516;43.570;1.448;2023-04-25T02:07:43;0.30;;;0.30;;
14847;SDS011;7516;43.570;1.448;2023-04-25T02:10:11;0.20;;;0.20;;
14847;SDS011;7516;43.570;1.448;2023-04-25T02:12:38;0.40;;;0.30;;
14847;SDS011;7516;43.570;1.448;2023-04-25T02:15:08;0.93;;;0.30;;
14847;SDS011;7516;43.570;1.448;2023-04-25T02:17:36;0.30;;;0.30;;
14847;SDS011;7516;43.570;1.448;2023-04-25T02:20:05;0.77;;;0.30;;
14847;SDS011;7516;43.570;1.448;2023-04-25T02:22:33;0.93;;;0.27;;
14847;SDS011;7516;43.570;1.448;2023-04-25T02:25:01;0.20;;;0.20;;
14847;SDS011;7516;43.570;1.448;2023-04-25T02:27:30;0.30;;;0.30;;
14847;SDS011;7516;43.570;1.448;2023-04-25T02:29:58;0.40;;;0.20;;
14847;SDS011;7516;43.570;1.448;2023-04-25T02:32:26;1.60;;;0.27;;
14847;SDS011;7516;43.570;1.448;2023-04-25T02:34:54;0.67;;;0.20;;
14847;SDS011;7516;43.570;1.448;2023-04-25T02:37:23;0.40;;;0.20;;
14847;SDS011;7516;43.570;1.448;2023-04-25T02:39:51;1.20;;;0.30;;
14847;SDS011;7516;43.570;1.448;2023-04-25T02:42:18;0.80;;;0.30;;
14847;SDS011;7516;43.570;1.448;2023-04-25T02:44:46;1.17;;;0.30;;
14847;SDS011;7516;43.570;1.448;2023-04-25T02:47:13;0.87;;;0.40;;
14847;SDS011;7516;43.570;1.448;2023-04-25T02:49:42;1.63;;;0.40;;
14847;SDS011;7516;43.570;1.448;2023-04-25T02:52:10;0.30;;;0.20;;
14847;SDS011;7516;43.570;1.448;2023-04-25T02:54:38;0.60;;;0.20;;
14847;SDS011;7516;43.570;1.448;2023-04-25T02:57:06;0.23;;;0.20;;
14847;SDS011;7516;43.570;1.448;2023-04-25T02:59:33;0.27;;;0.20;;
14847;SDS011;7516;43.570;1.448;2023-04-25T03:02:01;0.87;;;0.30;;
14847;SDS011;7516;43.570;1.448;2023-04-25T03:04:29;0.30;;;0.20;;
14847;SDS011;7516;43.570;1.448;2023-04-25T03:06:58;0.20;;;0.20;;
14847;SDS011;7516;43.570;1.448;2023-04-25T03:09:26;0.40;;;0.23;;
14847;SDS011;7516;43.570;1.448;2023-04-25T03:11:53;0.93;;;0.20;;
14847;SDS011;7516;43.570;1.448;2023-04-25T03:14:21;1.03;;;0.30;;
14847;SDS011;7516;43.570;1.448;2023-04-25T03:16:48;0.23;;;0.20;;
14847;SDS011;7516;43.570;1.448;2023-04-25T03:19:16;0.20;;;0.20;;
14847;SDS011;7516;43.570;1.448;2023-04-25T03:21:44;0.20;;;0.20;;
14847;SDS011;7516;43.570;1.448;2023-04-25T03:24:13;0.10;;;0.10;;
14847;SDS011;7516;43.570;1.448;2023-04-25T03:26:41;0.27;;;0.20;;
14847;SDS011;7516;43.570;1.448;2023-04-25T03:29:08;0.50;;;0.33;;
14847;SDS011;7516;43.570;1.448;2023-04-25T03:31:36;0.30;;;0.30;;
14847;SDS011;7516;43.570;1.448;2023-04-25T03:34:04;0.30;;;0.30;;
14847;SDS011;7516;43.570;1.448;2023-04-25T03:36:31;0.57;;;0.27;;
14847;SDS011;7516;43.570;1.448;2023-04-25T03:38:59;0.83;;;0.30;;
14847;SDS011;7516;43.570;1.448;2023-04-25T03:41:28;0.70;;;0.20;;
14847;SDS011;7516;43.570;1.448;2023-04-25T03:43:55;0.30;;;0.30;;
14847;SDS011;7516;43.570;1.448;2023-04-25T03:46:23;0.50;;;0.37;;
14847;SDS011;7516;43.570;1.448;2023-04-25T03:48:50;0.30;;;0.30;;
14847;SDS011;7516;43.570;1.448;2023-04-25T03:51:18;0.30;;;0.30;;
14847;SDS011;7516;43.570;1.448;2023-04-25T03:53:45;1.00;;;0.40;;
14847;SDS011;7516;43.570;1.448;2023-04-25T03:56:13;0.37;;;0.30;;
14847;SDS011;7516;43.570;1.448;2023-04-25T03:58:42;1.50;;;0.30;;
14847;SDS011;7516;43.570;1.448;2023-04-25T04:01:10;1.30;;;0.40;;
14847;SDS011;7516;43.570;1.448;2023-04-25T04:03:37;1.07;;;0.40;;
14847;SDS011;7516;43.570;1.448;2023-04-25T04:06:05;0.40;;;0.30;;
14847;SDS011;7516;43.570;1.448;2023-04-25T04:08:33;0.30;;;0.30;;
14847;SDS011;7516;43.570;1.448;2023-04-25T04:11:01;1.30;;;0.40;;
14847;SDS011;7516;43.570;1.448;2023-04-25T04:13:29;1.17;;;0.33;;
14847;SDS011;7516;43.570;1.448;2023-04-25T04:15:58;0.77;;;0.30;;
14847;SDS011;7516;43.570;1.448;2023-04-25T04:18:25;0.30;;;0.30;;
14847;SDS011;7516;43.570;1.448;2023-04-25T04:20:53;0.50;;;0.50;;
14847;SDS011;7516;43.570;1.448;2023-04-25T04:23:20;0.30;;;0.30;;
14847;SDS011;7516;43.570;1.448;2023-04-25T04:25:48;1.13;;;0.40;;
14847;SDS011;7516;43.570;1.448;2023-04-25T04:28:17;0.50;;;0.30;;
14847;SDS011;7516;43.570;1.448;2023-04-25T04:30:45;1.17;;;0.40;;
14847;SDS011;7516;43.570;1.448;2023-04-25T04:33:14;0.60;;;0.30;;
14847;SDS011;7516;43.570;1.448;2023-04-25T04:35:41;1.70;;;0.40;;
14847;SDS011;7516;43.570;1.448;2023-04-25T04:38:09;1.03;;;0.37;;
14847;SDS011;7516;43.570;1.448;2023-04-25T04:40:36;0.33;;;0.30;;
14847;SDS011;7516;43.570;1.448;2023-04-25T04:43:04;0.67;;;0.30;;
14847;SDS011;7516;43.570;1.448;2023-04-25T04:45:33;1.40;;;0.30;;
14847;SDS011;7516;43.570;1.448;2023-04-25T04:48:01;0.30;;;0.30;;
14847;SDS011;7516;43.570;1.448;2023-04-25T04:50:32;1.07;;;0.33;;
14847;SDS011;7516;43.570;1.448;2023-04-25T04:53:00;0.50;;;0.40;;
14847;SDS011;7516;43.570;1.448;2023-04-25T04:55:28;1.03;;;0.40;;
14847;SDS011;7516;43.570;1.448;2023-04-25T04:57:55;0.50;;;0.50;;
14847;SDS011;7516;43.570;1.448;2023-04-25T05:00:23;1.37;;;0.40;;
14847;SDS011;7516;43.570;1.448;2023-04-25T05:02:51;0.73;;;0.40;;
14847;SDS011;7516;43.570;1.448;2023-04-25T05:05:18;0.40;;;0.40;;
14847;SDS011;7516;43.570;1.448;2023-04-25T05:07:47;1.70;;;0.60;;
14847;SDS011;7516;43.570;1.448;2023-04-25T05:10:14;0.47;;;0.40;;
14847;SDS011;7516;43.570;1.448;2023-04-25T05:12:43;0.90;;;0.53;;
14847;SDS011;7516;43.570;1.448;2023-04-25T05:15:11;0.50;;;0.40;;
14847;SDS011;7516;43.570;1.448;2023-04-25T05:17:38;0.70;;;0.47;;
14847;SDS011;7516;43.570;1.448;2023-04-25T05:20:06;0.60;;;0.30;;
14847;SDS011;7516;43.570;1.448;2023-04-25T05:22:35;0.70;;;0.60;;
14847;SDS011;7516;43.570;1.448;2023-04-25T05:25:04;1.33;;;0.70;;
14847;SDS011;7516;43.570;1.448;2023-04-25T05:27:32;0.60;;;0.50;;
14847;SDS011;7516;43.570;1.448;2023-04-25T05:29:59;0.63;;;0.40;;
14847;SDS011;7516;43.570;1.448;2023-04-25T05:32:27;3.07;;;0.50;;
14847;SDS011;7516;43.570;1.448;2023-04-25T05:34:54;0.97;;;0.50;;
14847;SDS011;7516;43.570;1.448;2023-04-25T05:37:22;0.50;;;0.50;;
14847;SDS011;7516;43.570;1.448;2023-04-25T05:39:50;0.90;;;0.70;;
14847;SDS011;7516;43.570;1.448;2023-04-25T05:42:19;0.70;;;0.40;;
14847;SDS011;7516;43.570;1.448;2023-04-25T05:44:47;1.47;;;0.50;;
14847;SDS011;7516;43.570;1.448;2023-04-25T05:47:14;2.03;;;0.80;;
14847;SDS011;7516;43.570;1.448;2023-04-25T05:49:42;1.27;;;0.70;;
14847;SDS011;7516;43.570;1.448;2023-04-25T05:52:09;0.80;;;0.50;;
14847;SDS011;7516;43.570;1.448;2023-04-25T05:54:37;0.50;;;0.50;;
14847;SDS011;7516;43.570;1.448;2023-04-25T05:57:04;0.40;;;0.40;;
14847;SDS011;7516;43.570;1.448;2023-04-25T05:59:34;0.83;;;0.60;;
14847;SDS011;7516;43.570;1.448;2023-04-25T06:02:02;1.07;;;0.53;;
14847;SDS011;7516;43.570;1.448;2023-04-25T06:04:29;0.60;;;0.60;;
14847;SDS011;7516;43.570;1.448;2023-04-25T06:06:56;0.63;;;0.43;;
14847;SDS011;7516;43.570;1.448;2023-04-25T06:09:24;1.53;;;0.80;;
14847;SDS011;7516;43.570;1.448;2023-04-25T06:11:51;1.30;;;0.53;;
14847;SDS011;7516;43.570;1.448;2023-04-25T06:14:19;1.43;;;0.70;;
14847;SDS011;7516;43.570;1.448;2023-04-25T06:16:48;2.10;;;1.00;;
14847;SDS011;7516;43.570;1.448;2023-04-25T06:19:16;2.20;;;0.77;;
14847;SDS011;7516;43.570;1.448;2023-04-25T06:21:46;0.73;;;0.60;;
14847;SDS011;7516;43.570;1.448;2023-04-25T06:24:14;0.73;;;0.60;;
14847;SDS011;7516;43.570;1.448;2023-04-25T06:26:41;1.50;;;0.63;;
14847;SDS011;7516;43.570;1.448;2023-04-25T06:29:09;0.60;;;0.50;;
14847;SDS011;7516;43.570;1.448;2023-04-25T06:31:36;0.87;;;0.70;;
14847;SDS011;7516;43.570;1.448;2023-04-25T06:34:05;1.20;;;0.60;;
14847;SDS011;7516;43.570;1.448;2023-04-25T06:36:33;1.10;;;0.60;;
14847;SDS011;7516;43.570;1.448;2023-04-25T06:39:00;0.73;;;0.73;;
14847;SDS011;7516;43.570;1.448;2023-04-25T06:41:28;0.60;;;0.50;;
14847;SDS011;7516;43.570;1.448;2023-04-25T06:43:55;1.50;;;0.50;;
14847;SDS011;7516;43.570;1.448;2023-04-25T06:46:23;1.07;;;0.67;;
14847;SDS011;7516;43.570;1.448;2023-04-25T06:48:50;1.03;;;0.70;;
14847;SDS011;7516;43.570;1.448;2023-04-25T06:51:20;0.90;;;0.50;;
14847;SDS011;7516;43.570;1.448;2023-04-25T06:53:49;2.10;;;0.60;;
14847;SDS011;7516;43.570;1.448;2023-04-25T06:56:17;0.60;;;0.57;;
14847;SDS011;7516;43.570;1.448;2023-04-25T06:58:44;0.70;;;0.60;;
14847;SDS011;7516;43.570;1.448;2023-04-25T07:01:12;0.87;;;0.50;;
14847;SDS011;7516;43.570;1.448;2023-04-25T07:03:39;1.33;;;0.60;;
14847;SDS011;7516;43.570;1.448;2023-04-25T07:06:07;0.60;;;0.60;;
14847;SDS011;7516;43.570;1.448;2023-04-25T07:08:36;0.57;;;0.40;;
14847;SDS011;7516;43.570;1.448;2023-04-25T07:11:03;0.50;;;0.50;;
14847;SDS011;7516;43.570;1.448;2023-04-25T07:13:31;0.90;;;0.60;;
14847;SDS011;7516;43.570;1.448;2023-04-25T07:15:58;1.27;;;0.83;;
14847;SDS011;7516;43.570;1.448;2023-04-25T07:18:26;0.83;;;0.40;;
14847;SDS011;7516;43.570;1.448;2023-04-25T07:20:54;1.47;;;0.67;;
14847;SDS011;7516;43.570;1.448;2023-04-25T07:23:21;0.60;;;0.60;;
14847;SDS011;7516;43.570;1.448;2023-04-25T07:25:50;0.90;;;0.63;;
14847;SDS011;7516;43.570;1.448;2023-04-25T07:28:18;0.70;;;0.70;;
14847;SDS011;7516;43.570;1.448;2023-04-25T07:30:45;2.20;;;0.60;;
14847;SDS011;7516;43.570;1.448;2023-04-25T07:33:13;1.23;;;0.73;;
14847;SDS011;7516;43.570;1.448;2023-04-25T07:35:40;0.97;;;0.70;;
14847;SDS011;7516;43.570;1.448;2023-04-25T07:38:08;0.90;;;0.30;;
14847;SDS011;7516;43.570;1.448;2023-04-25T07:40:35;0.87;;;0.43;;
14847;SDS011;7516;43.570;1.448;2023-04-25T07:43:04;0.63;;;0.30;;
14847;SDS011;7516;43.570;1.448;2023-04-25T07:45:32;0.60;;;0.40;;
14847;SDS011;7516;43.570;1.448;2023-04-25T07:47:59;0.57;;;0.40;;
14847;SDS011;7516;43.570;1.448;2023-04-25T07:50:28;0.90;;;0.40;;
14847;SDS011;7516;43.570;1.448;2023-04-25T07:52:55;0.40;;;0.30;;
14847;SDS011;7516;43.570;1.448;2023-04-25T07:55:23;1.70;;;0.47;;
14847;SDS011;7516;43.570;1.448;2023-04-25T07:57:51;0.83;;;0.47;;
14847;SDS011;7516;43.570;1.448;2023-04-25T08:00:19;0.60;;;0.37;;
14847;SDS011;7516;43.570;1.448;2023-04-25T08:02:47;1.23;;;0.43;;
14847;SDS011;7516;43.570;1.448;2023-04-25T08:05:16;1.70;;;0.50;;
14847;SDS011;7516;43.570;1.448;2023-04-25T08:07:43;2.77;;;0.70;;
14847;SDS011;7516;43.570;1.448;2023-04-25T08:10:11;1.13;;;0.63;;
14847;SDS011;7516;43.570;1.448;2023-04-25T08:12:38;0.87;;;0.70;;
14847;SDS011;7516;43.570;1.448;2023-04-25T08:15:06;0.60;;;0.33;;
14847;SDS011;7516;43.570;1.448;2023-04-25T08:17:36;2.07;;;0.40;;
14847;SDS011;7516;43.570;1.448;2023-04-25T08:20:04;0.90;;;0.50;;
14847;SDS011;7516;43.570;1.448;2023-04-25T08:22:33;0.43;;;0.30;;
14847;SDS011;7516;43.570;1.448;2023-04-25T08:25:01;0.97;;;0.40;;
14847;SDS011;7516;43.570;1.448;2023-04-25T08:27:29;0.53;;;0.30;;
14847;SDS011;7516;43.570;1.448;2023-04-25T08:29:56;1.03;;;0.43;;
14847;SDS011;7516;43.570;1.448;2023-04-25T08:32:24;0.57;;;0.30;;
14847;SDS011;7516;43.570;1.448;2023-04-25T08:34:55;1.10;;;0.30;;
14847;SDS011;7516;43.570;1.448;2023-04-25T08:37:23;1.53;;;0.50;;
14847;SDS011;7516;43.570;1.448;2023-04-25T08:39:50;0.67;;;0.40;;
14847;SDS011;7516;43.570;1.448;2023-04-25T08:42:18;0.37;;;0.30;;
14847;SDS011;7516;43.570;1.448;2023-04-25T08:44:48;1.60;;;0.30;;
14847;SDS011;7516;43.570;1.448;2023-04-25T08:47:15;0.70;;;0.30;;
14847;SDS011;7516;43.570;1.448;2023-04-25T08:49:46;0.40;;;0.40;;
14847;SDS011;7516;43.570;1.448;2023-04-25T08:52:15;0.87;;;0.47;;
14847;SDS011;7516;43.570;1.448;2023-04-25T08:54:49;0.37;;;0.30;;
14847;SDS011;7516;43.570;1.448;2023-04-25T08:57:19;0.50;;;0.40;;
14847;SDS011;7516;43.570;1.448;2023-04-25T08:59:47;2.70;;;0.70;;
14847;SDS011;7516;43.570;1.448;2023-04-25T09:02:15;1.63;;;0.50;;
14847;SDS011;7516;43.570;1.448;2023-04-25T09:04:44;1.57;;;0.40;;
14847;SDS011;7516;43.570;1.448;2023-04-25T09:07:12;0.50;;;0.40;;
14847;SDS011;7516;43.570;1.448;2023-04-25T09:09:44;1.00;;;0.50;;
14847;SDS011;7516;43.570;1.448;2023-04-25T09:12:12;0.50;;;0.37;;
14847;SDS011;7516;43.570;1.448;2023-04-25T09:14:40;1.93;;;0.50;;
14847;SDS011;7516;43.570;1.448;2023-04-25T09:17:08;1.03;;;0.60;;
14847;SDS011;7516;43.570;1.448;2023-04-25T09:19:36;0.43;;;0.37;;
14847;SDS011;7516;43.570;1.448;2023-04-25T09:22:05;0.90;;;0.63;;
14847;SDS011;7516;43.570;1.448;2023-04-25T09:24:35;0.63;;;0.47;;
14847;SDS011;7516;43.570;1.448;2023-04-25T09:27:05;0.47;;;0.47;;
14847;SDS011;7516;43.570;1.448;2023-04-25T09:29:34;0.70;;;0.40;;
14847;SDS011;7516;43.570;1.448;2023-04-25T09:32:12;0.60;;;0.50;;
14847;SDS011;7516;43.570;1.448;2023-04-25T09:34:42;1.30;;;0.50;;
14847;SDS011;7516;43.570;1.448;2023-04-25T09:37:16;1.00;;;0.33;;
14847;SDS011;7516;43.570;1.448;2023-04-25T09:39:45;2.00;;;0.50;;
14847;SDS011;7516;43.570;1.448;2023-04-25T09:42:15;0.57;;;0.40;;
14847;SDS011;7516;43.570;1.448;2023-04-25T09:44:43;1.13;;;0.40;;
14847;SDS011;7516;43.570;1.448;2023-04-25T09:47:12;1.50;;;0.40;;
14847;SDS011;7516;43.570;1.448;2023-04-25T09:49:41;0.50;;;0.37;;
14847;SDS011;7516;43.570;1.448;2023-04-25T09:52:13;0.80;;;0.50;;
14847;SDS011;7516;43.570;1.448;2023-04-25T09:54:42;0.87;;;0.47;;
14847;SDS011;7516;43.570;1.448;2023-04-25T09:57:10;0.87;;;0.40;;
14847;SDS011;7516;43.570;1.448;2023-04-25T09:59:42;2.27;;;0.50;;
14847;SDS011;7516;43.570;1.448;2023-04-25T10:02:12;0.93;;;0.70;;
14847;SDS011;7516;43.570;1.448;2023-04-25T10:04:41;0.77;;;0.50;;
14847;SDS011;7516;43.570;1.448;2023-04-25T10:07:11;1.97;;;0.60;;
14847;SDS011;7516;43.570;1.448;2023-04-25T10:09:39;0.87;;;0.70;;
14847;SDS011;7516;43.570;1.448;2023-04-25T10:12:07;1.33;;;0.67;;
14847;SDS011;7516;43.570;1.448;2023-04-25T10:14:36;1.23;;;0.60;;
14847;SDS011;7516;43.570;1.448;2023-04-25T10:17:05;0.73;;;0.50;;
14847;SDS011;7516;43.570;1.448;2023-04-25T10:19:34;0.53;;;0.53;;
14847;SDS011;7516;43.570;1.448;2023-04-25T10:22:06;1.00;;;0.50;;
14847;SDS011;7516;43.570;1.448;2023-04-25T10:24:38;0.70;;;0.47;;
14847;SDS011;7516;43.570;1.448;2023-04-25T10:27:06;0.87;;;0.50;;
14847;SDS011;7516;43.570;1.448;2023-04-25T10:29:34;0.50;;;0.50;;
14847;SDS011;7516;43.570;1.448;2023-04-25T10:32:02;0.60;;;0.40;;
14847;SDS011;7516;43.570;1.448;2023-04-25T10:34:42;0.60;;;0.50;;
14847;SDS011;7516;43.570;1.448;2023-04-25T10:37:12;0.80;;;0.47;;
14847;SDS011;7516;43.570;1.448;2023-04-25T10:39:40;0.60;;;0.50;;
14847;SDS011;7516;43.570;1.448;2023-04-25T10:42:08;0.70;;;0.40;;
14847;SDS011;7516;43.570;1.448;2023-04-25T10:44:37;0.70;;;0.50;;
14847;SDS011;7516;43.570;1.448;2023-04-25T10:47:07;0.43;;;0.40;;
14847;SDS011;7516;43.570;1.448;2023-04-25T10:49:36;1.07;;;0.70;;
14847;SDS011;7516;43.570;1.448;2023-04-25T10:52:13;0.60;;;0.40;;
14847;SDS011;7516;43.570;1.448;2023-04-25T10:54:48;1.00;;;0.60;;
14847;SDS011;7516;43.570;1.448;2023-04-25T10:57:29;0.80;;;0.53;;
14847;SDS011;7516;43.570;1.448;2023-04-25T11:00:07;0.30;;;0.30;;
14847;SDS011;7516;43.570;1.448;2023-04-25T11:02:38;0.67;;;0.40;;
14847;SDS011;7516;43.570;1.448;2023-04-25T11:05:10;1.43;;;0.60;;
14847;SDS011;7516;43.570;1.448;2023-04-25T11:07:44;0.70;;;0.50;;
14847;SDS011;7516;43.570;1.448;2023-04-25T11:10:16;1.17;;;0.60;;
14847;SDS011;7516;43.570;1.448;2023-04-25T11:12:45;0.87;;;0.50;;
14847;SDS011;7516;43.570;1.448;2023-04-25T11:15:13;0.67;;;0.50;;
14847;SDS011;7516;43.570;1.448;2023-04-25T11:17:42;2.93;;;0.80;;
14847;SDS011;7516;43.570;1.448;2023-04-25T11:20:11;3.03;;;0.93;;
14847;SDS011;7516;43.570;1.448;2023-04-25T11:22:40;0.90;;;0.63;;
14847;SDS011;7516;43.570;1.448;2023-04-25T11:25:08;1.03;;;0.63;;
14847;SDS011;7516;43.570;1.448;2023-04-25T11:27:37;1.00;;;0.53;;
14847;SDS011;7516;43.570;1.448;2023-04-25T11:30:13;1.20;;;0.70;;
14847;SDS011;7516;43.570;1.448;2023-04-25T11:32:43;1.40;;;0.63;;
14847;SDS011;7516;43.570;1.448;2023-04-25T11:35:10;0.73;;;0.63;;
14847;SDS011;7516;43.570;1.448;2023-04-25T11:37:38;1.10;;;0.40;;
14847;SDS011;7516;43.570;1.448;2023-04-25T11:40:07;0.80;;;0.50;;
14847;SDS011;7516;43.570;1.448;2023-04-25T11:42:36;0.70;;;0.60;;
14847;SDS011;7516;43.570;1.448;2023-04-25T11:45:05;1.20;;;0.60;;
14847;SDS011;7516;43.570;1.448;2023-04-25T11:47:34;1.70;;;0.60;;
14847;SDS011;7516;43.570;1.448;2023-04-25T11:50:05;0.80;;;0.73;;
14847;SDS011;7516;43.570;1.448;2023-04-25T11:52:37;0.90;;;0.77;;
14847;SDS011;7516;43.570;1.448;2023-04-25T11:55:06;2.10;;;0.93;;
14847;SDS011;7516;43.570;1.448;2023-04-25T11:57:35;1.10;;;0.87;;
14847;SDS011;7516;43.570;1.448;2023-04-25T12:00:08;1.07;;;0.83;;
14847;SDS011;7516;43.570;1.448;2023-04-25T12:02:40;2.20;;;0.80;;
14847;SDS011;7516;43.570;1.448;2023-04-25T12:05:10;2.33;;;0.70;;
14847;SDS011;7516;43.570;1.448;2023-04-25T12:07:39;1.67;;;0.80;;
14847;SDS011;7516;43.570;1.448;2023-04-25T12:10:08;1.30;;;0.87;;
14847;SDS011;7516;43.570;1.448;2023-04-25T12:12:38;1.13;;;0.80;;
14847;SDS011;7516;43.570;1.448;2023-04-25T12:15:09;1.70;;;0.80;;
14847;SDS011;7516;43.570;1.448;2023-04-25T12:17:40;0.90;;;0.70;;
14847;SDS011;7516;43.570;1.448;2023-04-25T12:20:13;1.40;;;1.00;;
14847;SDS011;7516;43.570;1.448;2023-04-25T12:22:42;1.93;;;0.90;;
14847;SDS011;7516;43.570;1.448;2023-04-25T12:25:11;1.10;;;1.00;;
14847;SDS011;7516;43.570;1.448;2023-04-25T12:27:40;1.20;;;1.10;;
14847;SDS011;7516;43.570;1.448;2023-04-25T12:30:09;1.37;;;0.90;;
14847;SDS011;7516;43.570;1.448;2023-04-25T12:32:37;1.23;;;0.80;;
14847;SDS011;7516;43.570;1.448;2023-04-25T12:35:05;1.83;;;1.20;;
14847;SDS011;7516;43.570;1.448;2023-04-25T12:37:34;0.90;;;0.73;;
14847;SDS011;7516;43.570;1.448;2023-04-25T12:40:02;2.57;;;1.07;;
14847;SDS011;7516;43.570;1.448;2023-04-25T12:42:31;1.37;;;0.77;;
14847;SDS011;7516;43.570;1.448;2023-04-25T12:44:59;3.03;;;0.80;;
14847;SDS011;7516;43.570;1.448;2023-04-25T12:47:26;0.97;;;0.87;;
14847;SDS011;7516;43.570;1.448;2023-04-25T12:49:54;1.00;;;0.97;;
14847;SDS011;7516;43.570;1.448;2023-04-25T12:52:21;1.40;;;1.30;;
14847;SDS011;7516;43.570;1.448;2023-04-25T12:54:50;1.20;;;1.00;;
14847;SDS011;7516;43.570;1.448;2023-04-25T12:57:18;1.30;;;1.20;;
14847;SDS011;7516;43.570;1.448;2023-04-25T12:59:46;1.53;;;1.40;;
14847;SDS011;7516;43.570;1.448;2023-04-25T13:02:13;3.43;;;1.50;;
14847;SDS011;7516;43.570;1.448;2023-04-25T13:04:41;3.27;;;1.47;;
14847;SDS011;7516;43.570;1.448;2023-04-25T13:07:09;2.70;;;1.60;;
14847;SDS011;7516;43.570;1.448;2023-04-25T13:09:39;1.83;;;1.50;;
14847;SDS011;7516;43.570;1.448;2023-04-25T13:12:08;2.43;;;1.40;;
14847;SDS011;7516;43.570;1.448;2023-04-25T13:14:35;2.00;;;1.23;;
14847;SDS011;7516;43.570;1.448;2023-04-25T13:17:03;1.20;;;1.10;;
14847;SDS011;7516;43.570;1.448;2023-04-25T13:19:30;2.53;;;1.60;;
14847;SDS011;7516;43.570;1.448;2023-04-25T13:21:58;1.43;;;1.33;;
14847;SDS011;7516;43.570;1.448;2023-04-25T13:24:26;1.37;;;1.23;;
14847;SDS011;7516;43.570;1.448;2023-04-25T13:26:53;1.80;;;1.40;;
14847;SDS011;7516;43.570;1.448;2023-04-25T13:29:22;2.77;;;1.33;;
14847;SDS011;7516;43.570;1.448;2023-04-25T13:31:49;3.83;;;1.53;;
14847;SDS011;7516;43.570;1.448;2023-04-25T13:34:17;2.20;;;1.70;;
14847;SDS011;7516;43.570;1.448;2023-04-25T13:36:44;2.70;;;1.73;;
14847;SDS011;7516;43.570;1.448;2023-04-25T13:39:12;2.33;;;1.90;;
14847;SDS011;7516;43.570;1.448;2023-04-25T13:41:42;2.13;;;1.90;;
14847;SDS011;7516;43.570;1.448;2023-04-25T13:44:10;2.53;;;1.83;;
14847;SDS011;7516;43.570;1.448;2023-04-25T13:46:38;1.50;;;1.40;;
14847;SDS011;7516;43.570;1.448;2023-04-25T13:49:06;1.50;;;1.40;;
14847;SDS011;7516;43.570;1.448;2023-04-25T13:51:33;1.73;;;1.27;;
14847;SDS011;7516;43.570;1.448;2023-04-25T13:54:01;1.43;;;1.33;;
14847;SDS011;7516;43.570;1.448;2023-04-25T13:56:29;1.40;;;1.30;;
14847;SDS011;7516;43.570;1.448;2023-04-25T13:58:56;1.20;;;1.10;;
14847;SDS011;7516;43.570;1.448;2023-04-25T14:01:24;1.20;;;1.10;;
14847;SDS011;7516;43.570;1.448;2023-04-25T14:03:54;1.07;;;0.80;;
14847;SDS011;7516;43.570;1.448;2023-04-25T14:06:21;2.17;;;1.00;;
14847;SDS011;7516;43.570;1.448;2023-04-25T14:08:49;0.80;;;0.77;;
14847;SDS011;7516;43.570;1.448;2023-04-25T14:11:16;2.33;;;1.00;;
14847;SDS011;7516;43.570;1.448;2023-04-25T14:13:44;1.00;;;0.60;;
14847;SDS011;7516;43.570;1.448;2023-04-25T14:16:12;1.37;;;0.77;;
14847;SDS011;7516;43.570;1.448;2023-04-25T14:18:42;1.03;;;0.80;;
14847;SDS011;7516;43.570;1.448;2023-04-25T14:21:11;1.17;;;0.70;;
14847;SDS011;7516;43.570;1.448;2023-04-25T14:23:39;0.83;;;0.80;;
14847;SDS011;7516;43.570;1.448;2023-04-25T14:26:06;1.13;;;0.90;;
14847;SDS011;7516;43.570;1.448;2023-04-25T14:28:37;1.30;;;0.90;;
14847;SDS011;7516;43.570;1.448;2023-04-25T14:31:04;2.23;;;0.90;;
14847;SDS011;7516;43.570;1.448;2023-04-25T14:33:32;0.63;;;0.63;;
14847;SDS011;7516;43.570;1.448;2023-04-25T14:36:00;0.80;;;0.70;;
14847;SDS011;7516;43.570;1.448;2023-04-25T14:38:29;1.03;;;0.50;;
14847;SDS011;7516;43.570;1.448;2023-04-25T14:40:56;1.90;;;0.70;;
14847;SDS011;7516;43.570;1.448;2023-04-25T14:43:24;0.77;;;0.60;;
14847;SDS011;7516;43.570;1.448;2023-04-25T14:45:51;3.03;;;0.83;;
14847;SDS011;7516;43.570;1.448;2023-04-25T14:48:19;1.27;;;1.07;;
14847;SDS011;7516;43.570;1.448;2023-04-25T14:50:48;1.77;;;0.87;;
14847;SDS011;7516;43.570;1.448;2023-04-25T14:53:15;0.80;;;0.60;;
14847;SDS011;7516;43.570;1.448;2023-04-25T14:55:44;2.43;;;0.70;;
14847;SDS011;7516;43.570;1.448;2023-04-25T14:58:14;2.87;;;0.80;;
14847;SDS011;7516;43.570;1.448;2023-04-25T15:00:41;0.80;;;0.60;;
14847;SDS011;7516;43.570;1.448;2023-04-25T15:03:09;0.83;;;0.70;;
14847;SDS011;7516;43.570;1.448;2023-04-25T15:05:37;0.80;;;0.70;;
14847;SDS011;7516;43.570;1.448;2023-04-25T15:08:05;1.70;;;1.43;;